Time;durP1;ratioP1;P1;durP2;ratioP2;P2;SDS_P1;SDS_P2;PMS_P1;PMS_P2;Temp;Humidity;BMP_temperature;BMP_pressure;BME280_temperature;BME280_humidity;BME280_pressure;Samples;Min_cycle;Max_cycle;Signal;HPM_P1;HPM_P2
2022/05/10 08:09:10;;;;;;;9.45;7.70;;;;;;;19.82;55.91;101603.69;5278313;28;20448;-82
2022/05/10 08:11:43;;;;;;;8.48;6.20;;;;;;;19.90;55.95;101603.66;5259258;28;20067;-77
2022/05/10 08:14:14;;;;;;;9.82;6.60;;;;;;;19.94;55.71;101601.81;5259614;28;20052;-85
2022/05/10 08:16:48;;;;;;;7.97;7.00;;;;;;;19.97;54.83;101595.50;5260011;28;20049;-80
2022/05/10 08:19:20;;;;;;;8.82;6.03;;;;;;;20.05;54.76;101593.00;5259104;28;20032;-80
2022/05/10 08:21:55;;;;;;;8.65;6.70;;;;;;;20.07;55.21;101597.16;5257481;28;20469;-80
2022/05/10 08:24:27;;;;;;;9.32;6.32;;;;;;;20.07;54.15;101594.34;5259224;28;20053;-80
2022/05/10 08:26:59;;;;;;;9.32;6.20;;;;;;;20.10;54.82;101588.03;5259235;28;20440;-81
2022/05/10 08:29:30;;;;;;;7.60;6.80;;;;;;;20.13;54.87;101590.16;5441704;23;20149;-79
2022/05/10 08:32:02;;;;;;;8.32;6.22;;;;;;;20.12;54.29;101587.66;5237181;28;20487;-78
2022/05/10 08:34:35;;;;;;;8.48;6.22;;;;;;;20.12;53.69;101577.25;5235525;28;20033;-78
2022/05/10 08:37:06;;;;;;;6.40;5.65;;;;;;;20.12;53.64;101582.03;5237018;28;20381;-79
2022/05/10 08:39:38;;;;;;;8.77;6.15;;;;;;;20.11;54.14;101578.41;5218188;28;20026;-80
2022/05/10 08:42:25;;;;;;;7.85;5.93;;;;;;;20.15;54.09;101572.94;5226379;28;20169;-73
2022/05/10 08:45:08;;;;;;;9.93;6.25;;;;;;;20.18;54.09;101573.06;5237330;28;20057;-74
2022/05/10 08:47:41;;;;;;;11.75;7.00;;;;;;;20.22;53.86;101569.56;5236289;28;20461;-71
2022/05/10 08:50:13;;;;;;;7.75;5.78;;;;;;;20.24;53.49;101565.25;5236334;28;20025;-71
2022/05/10 08:52:47;;;;;;;10.45;5.75;;;;;;;20.29;53.59;101573.53;5237332;28;20034;-71
2022/05/10 08:55:27;;;;;;;10.73;6.07;;;;;;;20.35;53.42;101569.38;5237964;28;20542;-71
2022/05/10 08:58:28;;;;;;;8.10;5.47;;;;;;;20.41;53.25;101575.63;5236022;28;20389;-70
2022/05/10 09:01:03;;;;;;;10.30;5.97;;;;;;;20.46;53.17;101567.00;5234375;28;20034;-73
2022/05/10 09:03:41;;;;;;;9.43;6.13;;;;;;;20.56;52.72;101560.19;5236768;28;20067;-70
2022/05/10 09:06:27;;;;;;;5.97;5.38;;;;;;;20.69;51.44;101561.91;5236980;28;20065;-70
2022/05/10 09:09:13;;;;;;;9.30;5.60;;;;;;;20.75;51.64;101562.53;5216216;28;20056;-71
2022/05/10 09:11:51;;;;;;;8.18;5.78;;;;;;;20.80;51.82;101559.50;5202765;28;20026;-71
2022/05/10 09:14:30;;;;;;;7.80;5.68;;;;;;;20.84;51.74;101561.31;5203462;28;20030;-71
2022/05/10 09:17:03;;;;;;;8.82;5.60;;;;;;;20.97;51.36;101558.56;5219353;28;20037;-71
2022/05/10 09:19:40;;;;;;;8.50;6.60;;;;;;;21.15;51.36;101557.25;5222434;28;20037;-71
2022/05/10 09:22:36;;;;;;;10.93;5.60;;;;;;;21.10;51.03;101551.81;5215117;28;20425;-71
2022/05/10 09:25:36;;;;;;;8.88;6.30;;;;;;;21.18;50.99;101555.75;5221605;28;20032;-71
2022/05/10 09:28:24;;;;;;;8.75;6.03;;;;;;;21.21;51.15;101555.03;5220948;28;20034;-72
2022/05/10 09:36:35;;;;;;;6.70;6.10;;;;;;;21.27;49.93;101545.22;5173008;28;20039;-71
2022/05/10 09:39:18;;;;;;;5.88;5.35;;;;;;;21.34;50.57;101539.00;5179693;28;20027;-72
2022/05/10 09:41:53;;;;;;;10.05;5.80;;;;;;;21.40;50.73;101535.66;5180007;28;20142;-72
2022/05/10 09:44:27;;;;;;;6.65;6.03;;;;;;;21.46;51.22;101547.56;5180092;28;20023;-71
2022/05/10 09:47:19;;;;;;;6.17;5.60;;;;;;;21.49;50.94;101541.22;5166673;28;20077;-71
2022/05/10 09:49:51;;;;;;;8.57;5.85;;;;;;;21.52;50.78;101545.34;5169368;28;20349;-71
2022/05/10 09:52:27;;;;;;;6.93;6.25;;;;;;;21.55;50.76;101539.84;5176063;28;20026;-71
2022/05/10 09:54:58;;;;;;;9.18;5.65;;;;;;;21.68;51.20;101535.88;5178730;28;20451;-71
2022/05/10 09:57:35;;;;;;;6.85;5.80;;;;;;;21.84;50.28;101535.19;5159764;29;20027;-69
2022/05/10 10:00:13;;;;;;;7.40;6.00;;;;;;;21.88;49.79;101522.84;5159319;28;20027;-72
2022/05/10 10:02:56;;;;;;;13.82;6.72;;;;;;;21.98;49.83;101523.56;5175340;28;20062;-72
2022/05/10 10:05:32;;;;;;;7.72;6.20;;;;;;;22.08;49.45;101517.44;5182098;28;20054;-72
2022/05/10 10:08:03;;;;;;;8.10;5.88;;;;;;;22.23;49.68;101504.66;5181048;28;20030;-71
2022/05/10 10:10:37;;;;;;;9.80;5.90;;;;;;;22.26;48.79;101512.44;5181809;28;20021;-71
2022/05/10 10:13:32;;;;;;;8.85;5.05;;;;;;;22.46;48.82;101505.00;5180915;28;20081;-72
2022/05/10 10:16:15;;;;;;;9.63;6.35;;;;;;;22.55;48.16;101508.53;5181071;28;20121;-71
2022/05/10 10:18:52;;;;;;;9.52;5.78;;;;;;;22.66;47.31;101497.56;5181382;28;20129;-73
2022/05/10 10:21:36;;;;;;;6.82;5.70;;;;;;;22.75;46.15;101506.72;5176526;28;20019;-72
2022/05/10 10:24:09;;;;;;;6.78;5.55;;;;;;;22.92;45.98;101495.13;5173647;28;20035;-72
2022/05/10 10:26:50;;;;;;;8.23;5.30;;;;;;;23.09;45.51;101498.88;5172172;28;20023;-70
2022/05/10 10:29:34;;;;;;;14.73;5.38;;;;;;;23.18;44.98;101502.34;5198908;28;20046;-72
2022/05/10 10:32:16;;;;;;;7.68;5.80;;;;;;;23.24;44.93;101503.78;5210794;28;20057;-71
2022/05/10 10:34:54;;;;;;;9.18;4.85;;;;;;;23.22;44.04;101491.97;5221405;28;20041;-72
2022/05/10 10:37:50;;;;;;;8.13;5.32;;;;;;;23.23;44.11;101494.44;5220950;28;20110;-71
2022/05/10 10:40:41;;;;;;;6.72;4.65;;;;;;;23.35;43.34;101502.06;5220869;28;20038;-73
2022/05/10 10:43:21;;;;;;;15.52;5.45;;;;;;;23.32;43.29;101499.94;5221287;28;20121;-73
2022/05/10 10:46:01;;;;;;;7.88;5.18;;;;;;;23.36;43.08;101489.53;5221540;28;20140;-75
2022/05/10 10:48:48;;;;;;;14.75;5.47;;;;;;;23.29;42.96;101492.19;5222275;28;20029;-72
2022/05/10 10:51:29;;;;;;;14.00;6.00;;;;;;;23.27;43.37;101497.38;5200820;28;20501;-73
2022/05/10 10:54:01;;;;;;;15.40;5.75;;;;;;;23.28;43.45;101495.38;5201435;28;20031;-72
2022/05/10 10:56:45;;;;;;;11.10;5.72;;;;;;;23.37;43.35;101488.38;5200703;28;20043;-70
2022/05/10 10:59:55;;;;;;;17.70;6.25;;;;;;;23.36;43.76;101481.03;5218702;28;20466;-71
2022/05/10 11:03:05;;;;;;;20.08;6.80;;;;;;;23.36;43.40;101481.03;5221781;28;20466;-71
2022/05/10 11:06:06;;;;;;;14.38;6.18;;;;;;;23.30;43.31;101476.84;5208837;28;20038;-72
2022/05/10 11:08:51;;;;;;;14.40;6.40;;;;;;;23.38;43.59;101467.38;5200498;28;20410;-71
2022/05/10 11:11:51;;;;;;;14.02;6.20;;;;;;;23.35;43.21;101455.97;5199989;28;20162;-71
2022/05/10 11:15:17;;;;;;;7.30;5.00;;;;;;;23.31;43.68;101455.84;5203918;28;20053;-71
2022/05/10 11:18:08;;;;;;;6.53;4.75;;;;;;;23.32;43.55;101449.00;5187044;28;20053;-73
2022/05/10 11:20:51;;;;;;;8.65;5.68;;;;;;;23.24;42.88;101466.97;5215499;28;20429;-74
2022/05/10 11:24:05;;;;;;;12.00;6.40;;;;;;;23.23;43.46;101446.34;5220833;28;20022;-72
2022/05/10 11:27:16;;;;;;;12.00;5.45;;;;;;;23.34;43.99;101452.31;5220424;28;20108;-73
2022/05/10 11:30:08;;;;;;;10.52;5.53;;;;;;;23.40;43.46;101448.00;5219017;28;20053;-72
2022/05/10 11:33:12;;;;;;;7.97;5.32;;;;;;;23.54;43.49;101452.41;5219064;28;20033;-71
2022/05/10 11:36:02;;;;;;;7.20;5.45;;;;;;;23.62;43.67;101437.25;5217700;28;20095;-72
2022/05/10 11:39:10;;;;;;;11.10;6.18;;;;;;;23.58;43.70;101450.50;5199865;28;20092;-70
2022/05/10 11:42:23;;;;;;;8.85;5.65;;;;;;;23.57;43.37;101432.69;5212738;28;20470;-71
2022/05/10 11:45:29;;;;;;;7.10;5.10;;;;;;;23.53;43.49;101433.78;5219883;28;20049;-71
2022/05/10 11:48:38;;;;;;;6.47;5.53;;;;;;;23.54;43.53;101427.75;5221023;28;20529;-71
2022/05/10 11:51:53;;;;;;;14.07;5.50;;;;;;;23.61;43.13;101421.47;5216446;28;20303;-71
2022/05/10 11:54:56;;;;;;;15.43;5.47;;;;;;;23.70;41.99;101424.09;5220303;28;20402;-72
2022/05/10 11:57:31;;;;;;;9.77;4.75;;;;;;;23.65;41.35;101419.56;5220204;28;20034;-71
2022/05/10 12:00:27;;;;;;;8.45;5.35;;;;;;;23.66;41.69;101424.03;5219583;28;20022;-71
2022/05/10 12:03:04;;;;;;;7.13;4.90;;;;;;;23.61;41.74;101424.28;5220531;28;20061;-71
2022/05/10 12:05:39;;;;;;;17.80;5.65;;;;;;;23.63;41.65;101419.09;5219389;28;20022;-71
2022/05/10 12:08:19;;;;;;;10.15;5.40;;;;;;;23.69;41.90;101437.44;5219389;28;20116;-70
2022/05/10 12:10:50;;;;;;;9.20;5.20;;;;;;;23.70;41.45;101416.44;5220054;28;20037;-71
2022/05/10 12:22:53;;;;;;;12.23;5.32;;;;;;;23.79;41.70;101413.44;5206996;28;20117;-70
2022/05/10 12:25:59;;;;;;;18.73;6.30;;;;;;;23.84;41.87;101416.81;5200003;28;20062;-74
2022/05/10 12:28:41;;;;;;;13.15;5.38;;;;;;;23.82;41.80;101404.22;5213004;28;20083;-73
2022/05/10 12:31:22;;;;;;;11.57;5.38;;;;;;;23.86;41.42;101405.13;5220375;28;20026;-77
2022/05/10 12:34:06;;;;;;;12.85;5.97;;;;;;;23.82;41.30;101407.03;5219922;28;20045;-72
2022/05/10 12:36:40;;;;;;;14.20;6.50;;;;;;;23.85;40.90;101403.47;5219704;28;20552;-72
2022/05/10 12:39:20;;;;;;;10.48;6.07;;;;;;;23.87;41.11;101399.09;5222555;28;20377;-72
2022/05/10 12:42:16;;;;;;;10.60;5.63;;;;;;;23.92;41.42;101400.00;5221829;28;20111;-73
2022/05/10 12:45:06;;;;;;;;;;;;;;;23.97;40.48;101385.56;5225066;28;20092;-72
2022/05/10 12:47:50;;;;;;;11.13;5.57;;;;;;;23.89;40.69;101389.41;5224960;28;19924;-72
2022/05/10 12:50:48;;;;;;;20.48;7.00;;;;;;;23.90;40.20;101380.53;5223364;28;20076;-72
2022/05/10 12:53:29;;;;;;;18.95;5.68;;;;;;;23.85;39.85;101390.16;5218188;28;20042;-69
2022/05/10 12:56:12;;;;;;;26.65;7.22;;;;;;;23.84;40.08;101391.31;5207294;28;20490;-72
2022/05/10 12:59:06;;;;;;;19.30;6.68;;;;;;;23.84;40.14;101397.00;5214118;28;20064;-71
2022/05/10 13:01:38;;;;;;;14.95;5.72;;;;;;;23.78;40.07;101378.66;5222577;28;20494;-71
2022/05/10 13:04:20;;;;;;;18.23;5.40;;;;;;;23.74;40.27;101383.41;5222511;28;20052;-71
2022/05/10 13:07:04;;;;;;;11.50;5.45;;;;;;;23.73;40.74;101393.09;5223289;28;20465;-72
2022/05/10 13:09:37;;;;;;;16.08;5.85;;;;;;;23.74;40.81;101376.91;5223071;28;20192;-70
2022/05/10 13:12:18;;;;;;;12.45;6.05;;;;;;;23.76;40.89;101377.38;5222410;28;20065;-70
2022/05/10 13:14:53;;;;;;;10.43;5.30;;;;;;;23.80;40.54;101359.28;5219871;28;20041;-71
2022/05/10 13:17:34;;;;;;;6.85;4.45;;;;;;;23.92;40.50;101371.69;5221427;28;20022;-71
2022/05/10 13:20:10;;;;;;;6.18;4.63;;;;;;;24.04;40.39;101357.41;5221158;28;20481;-69
2022/05/10 13:22:54;;;;;;;13.65;6.10;;;;;;;24.14;40.51;101351.16;5223595;28;20038;-71
2022/05/10 13:25:39;;;;;;;20.90;6.90;;;;;;;24.19;40.67;101359.38;5221706;28;20037;-71
2022/05/10 13:28:18;;;;;;;13.40;5.65;;;;;;;24.12;40.68;101350.69;5223025;28;20377;-69
2022/05/10 13:30:55;;;;;;;11.35;5.65;;;;;;;24.28;40.79;101354.28;5218336;28;20056;-70
2022/05/10 13:33:35;;;;;;;16.25;10.73;;;;;;;24.24;40.93;101344.91;5218381;28;20228;-70
2022/05/10 13:36:10;;;;;;;15.10;6.07;;;;;;;24.23;41.08;101346.09;5221474;28;20118;-70
2022/05/10 13:38:51;;;;;;;10.13;5.60;;;;;;;24.26;41.09;101345.38;5222178;28;20124;-70
2022/05/10 13:41:30;;;;;;;13.30;7.53;;;;;;;24.31;41.16;101341.41;5223160;28;20044;-71
2022/05/10 13:44:22;;;;;;;8.18;5.70;;;;;;;24.30;40.99;101343.41;5223108;28;20034;-69
2022/05/10 13:46:59;;;;;;;9.48;5.43;;;;;;;24.33;40.18;101336.19;5221168;28;20119;-71
2022/05/10 13:49:38;;;;;;;20.10;10.55;;;;;;;24.29;39.62;101335.31;5210458;28;20494;-72
2022/05/10 13:52:23;;;;;;;16.73;6.05;;;;;;;24.23;39.75;101336.78;5218804;28;20722;-71
2022/05/10 13:54:57;;;;;;;12.97;5.70;;;;;;;24.32;39.83;101333.72;5213268;28;20069;-71
2022/05/10 13:57:35;;;;;;;18.27;6.80;;;;;;;24.35;40.07;101327.31;5202156;28;20030;-68
2022/05/10 14:00:18;;;;;;;18.10;7.15;;;;;;;24.62;39.87;101331.13;5219381;28;20116;-70
2022/05/10 14:03:00;;;;;;;14.25;5.32;;;;;;;24.64;39.99;101315.38;5219546;28;20528;-68
2022/05/10 14:05:31;;;;;;;15.75;6.10;;;;;;;24.48;40.13;101309.00;5211680;28;20288;-68
2022/05/10 14:08:10;;;;;;;9.68;5.28;;;;;;;24.49;40.05;101305.78;5221727;28;20018;-69
2022/05/10 14:10:45;;;;;;;11.77;5.45;;;;;;;24.43;39.97;101312.91;5220278;28;20481;-68
2022/05/10 14:13:20;;;;;;;15.75;5.55;;;;;;;24.42;39.87;101316.13;5221470;28;20038;-68
2022/05/10 14:15:52;;;;;;;10.27;5.22;;;;;;;24.38;39.79;101307.53;5222295;28;20109;-69
2022/05/10 14:18:28;;;;;;;10.73;6.00;;;;;;;24.33;40.00;101309.84;5222081;28;20157;-67
2022/05/10 14:21:08;;;;;;;7.32;5.13;;;;;;;24.56;40.10;101301.44;5220151;28;20033;-67
2022/05/10 14:23:40;;;;;;;8.23;5.63;;;;;;;24.55;40.25;101300.63;5220191;28;20030;-69
2022/05/10 14:26:32;;;;;;;10.88;6.22;;;;;;;24.52;38.08;101310.72;5220971;28;20524;-68
2022/05/10 14:29:15;;;;;;;9.20;5.13;;;;;;;24.44;38.38;101303.22;5201181;28;20125;-68
2022/05/10 14:32:02;;;;;;;13.85;5.78;;;;;;;24.35;38.59;101296.97;5211590;28;20026;-70
2022/05/10 14:34:53;;;;;;;16.48;6.18;;;;;;;24.41;38.98;101300.31;5221200;28;20544;-69
2022/05/10 14:37:53;;;;;;;7.18;5.30;;;;;;;24.34;38.87;101285.97;5221798;28;20030;-68
2022/05/10 14:40:34;;;;;;;8.73;4.93;;;;;;;24.28;38.93;101299.63;5202446;28;20158;-67
2022/05/10 14:43:10;;;;;;;8.32;5.43;;;;;;;24.23;38.86;101302.75;5218569;28;20033;-67
2022/05/10 14:45:43;;;;;;;12.57;4.60;;;;;;;24.18;39.88;101301.03;5220675;28;20084;-68
2022/05/10 14:48:34;;;;;;;9.50;5.55;;;;;;;24.12;40.25;101294.03;5219159;28;20181;-69
2022/05/10 14:51:08;;;;;;;10.10;5.47;;;;;;;24.05;39.26;101282.53;5220449;28;20025;-68
2022/05/10 14:53:54;;;;;;;10.90;4.80;;;;;;;23.99;39.00;101296.19;5215379;28;20030;-69
2022/05/10 14:56:35;;;;;;;7.65;4.38;;;;;;;23.98;38.63;101302.22;5200868;28;20388;-66
2022/05/10 14:59:48;;;;;;;12.50;5.25;;;;;;;23.97;38.63;101297.75;5214305;28;20034;-67
2022/05/10 15:02:29;;;;;;;6.03;3.60;;;;;;;23.84;37.47;101288.56;5219088;28;20042;-67
2022/05/10 15:05:10;;;;;;;10.90;3.60;;;;;;;23.78;36.73;101293.69;5221115;28;20470;-69
2022/05/10 15:07:44;;;;;;;10.98;7.25;;;;;;;23.78;36.54;101293.69;5220597;28;20022;-67
2022/05/10 15:10:18;;;;;;;6.97;4.30;;;;;;;23.83;37.19;101287.75;5219912;28;20025;-68
2022/05/10 15:13:03;;;;;;;7.10;3.70;;;;;;;23.74;36.86;101291.97;5220423;28;20478;-68
2022/05/10 15:15:46;;;;;;;8.70;3.55;;;;;;;23.74;36.54;101287.13;5220963;28;20022;-68
2022/05/10 15:21:24;;;;;;;7.25;3.63;;;;;;;23.72;36.26;101282.97;5221753;28;20474;-68
2022/05/10 15:23:56;;;;;;;10.00;3.30;;;;;;;23.75;36.57;101283.13;5220429;28;20065;-68
2022/05/10 15:26:33;;;;;;;6.93;2.75;;;;;;;23.75;36.65;101291.63;5221007;28;20096;-68
2022/05/10 15:29:06;;;;;;;6.43;2.65;;;;;;;23.66;36.77;101300.25;5219656;28;20050;-68
2022/05/10 15:31:37;;;;;;;7.25;3.28;;;;;;;23.60;36.76;101292.44;5219659;28;20061;-67
2022/05/10 15:34:43;;;;;;;9.48;3.22;;;;;;;23.49;36.83;101286.50;5220315;28;20061;-68
2022/05/10 15:37:02;;;;;;;6.80;3.03;;;;;;;23.42;37.58;101290.00;5220446;28;20053;-68
2022/05/10 15:39:34;;;;;;;9.93;3.00;;;;;;;23.40;37.47;101289.53;5218486;28;20494;-68
2022/05/10 15:42:20;;;;;;;7.22;2.95;;;;;;;23.30;37.95;101301.41;5220672;28;20030;-68
2022/05/10 15:44:52;;;;;;;9.68;3.15;;;;;;;23.29;38.23;101285.63;5218746;28;20033;-69
2022/05/10 15:47:28;;;;;;;6.93;2.80;;;;;;;23.23;38.23;101295.56;5209399;28;20038;-69
2022/05/10 15:50:00;;;;;;;7.15;3.28;;;;;;;23.12;37.94;101294.47;5216280;28;20026;-69
2022/05/10 15:52:31;;;;;;;4.70;3.20;;;;;;;23.12;38.02;101294.47;5218381;28;20026;-70
2022/05/10 15:55:03;;;;;;;5.32;3.55;;;;;;;23.02;38.06;101290.19;5220077;28;20060;-69
2022/05/10 15:57:35;;;;;;;4.63;3.17;;;;;;;22.93;38.45;101292.31;5219636;28;20417;-69
2022/05/10 16:00:11;;;;;;;5.90;3.10;;;;;;;22.97;38.62;101288.44;5219142;28;20022;-69
2022/05/10 16:02:43;;;;;;;5.13;3.22;;;;;;;22.95;38.80;101289.94;5220754;28;20033;-69
2022/05/10 16:05:15;;;;;;;8.23;3.17;;;;;;;22.89;38.78;101295.06;5219249;28;20029;-68
2022/05/10 16:07:46;;;;;;;15.45;13.95;;;;;;;22.90;38.91;101288.22;5219598;28;20034;-67
2022/05/10 16:10:18;;;;;;;4.88;2.90;;;;;;;22.91;39.25;101287.03;5219219;28;20045;-69
2022/05/10 16:12:50;;;;;;;6.57;3.13;;;;;;;22.87;39.08;101290.94;5213610;28;20628;-71
2022/05/10 16:15:21;;;;;;;6.60;3.13;;;;;;;22.89;39.47;101289.41;5219239;28;20076;-69
2022/05/10 16:17:52;;;;;;;5.55;3.10;;;;;;;22.88;39.49;101295.41;5220197;28;20030;-72
2022/05/10 16:20:24;;;;;;;7.20;3.22;;;;;;;22.89;39.50;101291.41;5219974;28;20025;-71
2022/05/10 16:22:55;;;;;;;6.82;3.35;;;;;;;22.94;39.50;101293.97;5222982;28;20033;-71
2022/05/10 16:25:27;;;;;;;7.45;3.22;;;;;;;22.96;39.31;101286.78;5221800;28;20026;-70
2022/05/10 16:30:49;;;;;;;4.70;3.33;;;;;;;23.03;39.27;101274.03;5224408;28;20413;-71
2022/05/10 16:33:23;;;;;;;4.32;2.92;;;;;;;23.07;39.03;101275.75;5223475;28;20026;-70
2022/05/10 16:35:55;;;;;;;6.72;3.15;;;;;;;23.05;39.03;101272.47;5223616;28;20450;-70
2022/05/10 16:38:27;;;;;;;9.80;4.72;;;;;;;23.02;39.37;101284.53;5218582;28;20030;-70
2022/05/10 16:40:58;;;;;;;6.15;3.70;;;;;;;22.87;41.54;101282.47;5213420;28;20033;-70
2022/05/10 16:43:30;;;;;;;8.40;4.13;;;;;;;22.87;42.32;101283.28;5222243;28;20034;-70
2022/05/10 16:46:01;;;;;;;10.38;3.97;;;;;;;22.66;43.00;101291.19;5222629;28;20422;-71
2022/05/10 16:48:34;;;;;;;9.57;3.63;;;;;;;22.64;43.31;101288.72;5220020;28;20034;-71
2022/05/10 16:51:05;;;;;;;11.45;3.38;;;;;;;22.50;43.42;101291.16;5202414;28;20041;-72
2022/05/10 16:53:36;;;;;;;8.93;3.78;;;;;;;22.43;43.63;101285.31;5214582;28;20473;-70
2022/05/10 16:56:08;;;;;;;6.32;3.50;;;;;;;22.48;43.35;101294.34;5221734;28;20560;-71
2022/05/10 16:58:39;;;;;;;6.65;4.03;;;;;;;22.28;43.17;101290.53;5222462;28;20029;-71
2022/05/10 17:01:11;;;;;;;40.03;35.67;;;;;;;22.24;43.45;101294.41;5222027;28;20026;-70
2022/05/10 17:03:42;;;;;;;25.05;22.55;;;;;;;22.18;43.67;101307.13;5221762;28;20034;-71
2022/05/10 17:06:13;;;;;;;8.77;4.38;;;;;;;21.98;43.16;101295.66;5221934;28;20025;-70
2022/05/10 17:08:45;;;;;;;7.80;6.28;;;;;;;21.83;43.08;101296.38;5222399;28;20095;-71
2022/05/10 17:11:18;;;;;;;9.13;3.30;;;;;;;21.83;43.50;101294.41;5223313;28;20131;-70
2022/05/10 17:13:50;;;;;;;8.30;3.38;;;;;;;21.90;43.64;101305.91;5223380;28;20033;-70
2022/05/10 17:16:22;;;;;;;7.95;3.65;;;;;;;21.90;43.59;101297.44;5222994;28;20462;-72
2022/05/10 17:19:00;;;;;;;4.65;3.08;;;;;;;21.90;43.66;101300.25;5223350;28;20037;-71
2022/05/10 17:21:31;;;;;;;8.65;3.60;;;;;;;21.71;43.60;101306.53;5223625;28;20034;-70
2022/05/10 17:24:04;;;;;;;20.38;5.50;;;;;;;21.61;43.55;101312.66;5222783;28;20041;-72
2022/05/10 17:26:35;;;;;;;7.80;3.17;;;;;;;21.36;43.09;101323.06;5216805;28;20033;-71
2022/05/10 17:29:08;;;;;;;3.97;2.83;;;;;;;21.27;43.21;101317.56;5202582;28;20042;-72
